Arvada, Wyoming
Current Conditions -  °F | °C
As of 6:53 AM on Monday 22 Dec 2014 (Local Time) from KBYG Reporting Station
Overcast Overcast  
Wind Chill: 24°   Ceiling: 8500
Heat Index: 33°   Visibility: 10mi
Dew Point: 21°   Wind: 13mph
Humidity: 61%   Direction: 320°NW
Pressure: 29.7"   Gusts: 26mph
Location:  44.65°N, 106.13°W
Report Text: KBYG 221353Z AUTO 32011G23KT 10SM FEW022 OVC085 01/M06 A2970 RMK AO2 PK WND 31035/1321 UPB03E08SNE03B08E41 SLP068 P0000 T00061061
Loading
Personal Weather Stations






























Interactive Weather Map New forecast layout! Learn more

10-Day Weather Forecast

Advertisements
Track Severe Weather on mobile